Allegany, New York
Current Conditions -  °F | °C
As of 1:35 AM on Thursday 27 Nov 2014 (Local Time) from KOLE Reporting Station
Light Snow Light Snow  
Wind Chill: 27°   Ceiling: 800
Heat Index: 27°   Visibility: 5mi
Dew Point: 27°   Wind: 3mph
Humidity: 100%   Direction: 10°N
Pressure: 29.94"   Gusts: NA
Location:  42.09°N, 78.49°W
Report Text: KOLE 270635Z AUTO 01003KT 5SM -SN OVC008 M03/M03 A2994 RMK AO2
Loading
Personal Weather Stations






























Interactive Weather Map New forecast layout! Learn more

10-Day Weather Forecast

Advertisements
Track Severe Weather on mobile